Time;durP1;ratioP1;P1;durP2;ratioP2;P2;SDS_P1;SDS_P2;PMS_P1;PMS_P2;Temp;Humidity;BMP_temperature;BMP_pressure;BME280_temperature;BME280_humidity;BME280_pressure;Samples;Min_cycle;Max_cycle;Signal;HPM_P1;HPM_P2
2023/10/22 00:02:23;;;;;;;19.85;3.60;;;16.00;99.90;;;;;;6256377;23;20031;-78
2023/10/22 00:04:51;;;;;;;15.18;3.38;;;15.90;99.90;;;;;;6225074;23;20043;-80
2023/10/22 00:07:19;;;;;;;12.02;3.85;;;15.90;99.90;;;;;;6263130;23;20036;-79
2023/10/22 00:09:46;;;;;;;18.10;6.63;;;15.70;99.90;;;;;;6251742;22;20024;-79
2023/10/22 00:12:14;;;;;;;20.60;7.20;;;15.70;99.90;;;;;;6248753;23;20028;-81
2023/10/22 00:14:41;;;;;;;18.98;7.15;;;15.60;99.90;;;;;;6260213;23;20047;-78
2023/10/22 00:17:08;;;;;;;24.58;7.85;;;15.50;99.90;;;;;;6260103;23;20028;-79
2023/10/22 00:19:48;;;;;;;22.92;7.80;;;15.50;99.90;;;;;;6256808;22;20019;-78
2023/10/22 00:22:17;;;;;;;20.23;7.68;;;15.50;99.90;;;;;;6262261;23;20507;-80
2023/10/22 00:24:44;;;;;;;15.35;4.93;;;15.50;99.90;;;;;;6253711;23;20024;-77
2023/10/22 00:27:12;;;;;;;12.23;3.97;;;15.50;99.90;;;;;;6260448;23;20444;-78
2023/10/22 00:29:39;;;;;;;19.65;5.40;;;15.40;99.90;;;;;;6231352;23;20083;-79
2023/10/22 00:34:38;;;;;;;22.63;7.93;;;15.30;99.90;;;;;;6203887;23;20013;-77
2023/10/22 00:37:05;;;;;;;21.05;7.70;;;15.20;99.90;;;;;;6205570;23;20020;-75
2023/10/22 00:39:34;;;;;;;22.83;8.60;;;15.20;99.90;;;;;;6201858;23;20029;-76
2023/10/22 00:42:01;;;;;;;21.85;8.55;;;15.20;99.90;;;;;;6190229;23;20487;-74
2023/10/22 00:44:29;;;;;;;21.83;8.35;;;15.10;99.90;;;;;;6218935;23;20028;-76
2023/10/22 00:46:57;;;;;;;18.05;5.70;;;15.10;99.90;;;;;;6221060;23;20128;-76
2023/10/22 00:49:25;;;;;;;18.50;6.88;;;15.10;99.90;;;;;;6223148;23;20016;-76
2023/10/22 00:51:52;;;;;;;19.52;7.35;;;15.10;99.90;;;;;;6186139;23;20032;-77
2023/10/22 00:54:20;;;;;;;17.27;7.57;;;15.10;99.90;;;;;;6215757;23;20020;-77
2023/10/22 00:56:51;;;;;;;17.40;6.15;;;15.10;99.90;;;;;;6217163;23;20051;-78
2023/10/22 00:59:20;;;;;;;15.45;6.68;;;15.10;99.90;;;;;;6222034;23;20020;-73
2023/10/22 01:01:47;;;;;;;21.45;6.53;;;14.90;99.90;;;;;;6211239;23;20016;-77
2023/10/22 01:04:14;;;;;;;20.23;5.85;;;14.90;99.90;;;;;;6186719;23;20017;-77
2023/10/22 01:06:42;;;;;;;19.30;6.05;;;14.90;99.90;;;;;;6213995;23;20095;-77
2023/10/22 01:09:11;;;;;;;23.05;6.85;;;15.00;99.90;;;;;;6215234;23;20021;-75
2023/10/22 01:11:55;;;;;;;19.85;4.70;;;15.00;99.90;;;;;;6217520;23;20028;-78
2023/10/22 01:14:24;;;;;;;13.55;3.67;;;14.90;99.90;;;;;;6186943;23;20024;-76
2023/10/22 01:16:51;;;;;;;14.02;3.65;;;14.60;99.90;;;;;;6222205;23;20021;-78
2023/10/22 01:19:18;;;;;;;11.70;3.40;;;14.50;99.90;;;;;;6210673;23;20024;-74
2023/10/22 01:21:46;;;;;;;20.63;4.97;;;14.50;99.90;;;;;;6213753;23;20028;-78
2023/10/22 01:24:14;;;;;;;17.00;4.60;;;14.50;99.90;;;;;;6185110;23;20021;-79
2023/10/22 01:26:42;;;;;;;13.35;3.63;;;14.40;99.90;;;;;;6217862;23;20389;-74
2023/10/22 01:29:10;;;;;;;15.25;3.50;;;14.40;99.90;;;;;;6184721;23;20457;-77
2023/10/22 01:31:37;;;;;;;15.85;3.97;;;14.40;99.90;;;;;;6222066;23;20389;-77
2023/10/22 01:34:05;;;;;;;11.57;4.30;;;14.30;99.90;;;;;;6224423;23;20025;-75
2023/10/22 01:36:32;;;;;;;13.52;3.38;;;14.40;99.90;;;;;;6190729;23;20449;-73
2023/10/22 01:38:59;;;;;;;11.85;3.38;;;14.50;99.90;;;;;;6199230;23;20100;-75
2023/10/22 01:41:27;;;;;;;11.07;3.58;;;14.50;99.90;;;;;;6222491;23;20060;-73
2023/10/22 01:43:58;;;;;;;14.27;3.55;;;14.60;99.90;;;;;;6190938;23;20050;-75
2023/10/22 01:46:25;;;;;;;13.45;4.05;;;14.50;99.90;;;;;;6232955;23;20057;-75
2023/10/22 01:48:52;;;;;;;12.50;3.45;;;14.50;99.90;;;;;;6211954;23;20051;-75
2023/10/22 01:51:20;;;;;;;13.15;3.60;;;14.40;99.90;;;;;;6227521;23;20408;-77
2023/10/22 01:53:47;;;;;;;16.20;4.57;;;14.40;99.90;;;;;;6186732;23;20465;-73
2023/10/22 01:56:14;;;;;;;14.38;4.80;;;14.30;99.90;;;;;;6217576;23;20055;-78
2023/10/22 01:58:44;;;;;;;16.02;5.15;;;14.30;99.90;;;;;;6185659;23;20710;-77
2023/10/22 02:01:12;;;;;;;16.60;3.80;;;14.20;99.90;;;;;;6188129;23;20066;-79
2023/10/22 02:03:40;;;;;;;16.90;4.18;;;14.30;99.90;;;;;;6185989;23;20099;-76
2023/10/22 02:06:12;;;;;;;14.13;3.50;;;14.20;99.90;;;;;;6213352;23;20114;-75
2023/10/22 02:08:40;;;;;;;19.02;3.70;;;14.10;99.90;;;;;;6217124;23;20021;-76
2023/10/22 02:11:07;;;;;;;15.65;4.15;;;14.10;99.90;;;;;;6219747;23;20024;-75
2023/10/22 02:13:35;;;;;;;14.90;3.67;;;13.90;99.90;;;;;;6210275;23;20108;-75
2023/10/22 02:16:05;;;;;;;18.45;4.30;;;13.90;99.90;;;;;;6223132;23;20017;-76
2023/10/22 02:18:32;;;;;;;13.65;3.00;;;13.90;99.90;;;;;;6210036;23;20032;-75
2023/10/22 02:21:02;;;;;;;17.67;4.13;;;14.10;99.90;;;;;;6185190;23;20116;-78
2023/10/22 02:23:30;;;;;;;11.05;3.58;;;14.00;99.90;;;;;;6186199;23;20464;-79
2023/10/22 02:25:57;;;;;;;11.63;3.75;;;14.00;99.90;;;;;;6219113;23;20020;-75
2023/10/22 02:28:24;;;;;;;12.68;3.13;;;14.10;99.90;;;;;;6221931;23;20020;-77
2023/10/22 02:30:52;;;;;;;17.25;4.53;;;14.00;99.90;;;;;;6211677;23;20034;-76
2023/10/22 02:33:20;;;;;;;14.75;3.38;;;14.00;99.90;;;;;;6213635;23;20028;-76
2023/10/22 02:35:48;;;;;;;11.23;3.72;;;13.90;99.90;;;;;;6217313;23;20341;-74
2023/10/22 02:38:17;;;;;;;21.92;4.47;;;13.90;99.90;;;;;;6218505;23;20051;-76
2023/10/22 02:40:48;;;;;;;13.82;3.65;;;13.90;99.90;;;;;;6190461;23;20340;-74
2023/10/22 02:43:16;;;;;;;16.30;4.38;;;13.90;99.90;;;;;;6195157;23;20578;-77
2023/10/22 02:45:50;;;;;;;20.30;4.28;;;13.90;99.90;;;;;;6219697;23;20025;-76
2023/10/22 02:48:17;;;;;;;13.73;3.50;;;13.80;99.90;;;;;;6234538;23;20030;-76
2023/10/22 02:50:47;;;;;;;13.30;2.80;;;13.80;99.90;;;;;;6240190;22;20016;-77
2023/10/22 02:53:15;;;;;;;16.65;3.67;;;13.90;99.90;;;;;;6201816;23;20016;-77
2023/10/22 02:55:42;;;;;;;14.15;4.03;;;13.70;99.90;;;;;;6238648;23;20327;-74
2023/10/22 02:58:10;;;;;;;12.68;3.22;;;13.60;99.90;;;;;;6240628;23;20012;-73
2023/10/22 03:00:37;;;;;;;15.75;4.25;;;13.60;99.90;;;;;;6231151;23;20024;-76
2023/10/22 03:03:05;;;;;;;15.32;4.07;;;13.70;99.90;;;;;;6230030;23;20035;-76
2023/10/22 03:05:33;;;;;;;15.68;4.78;;;13.70;99.90;;;;;;6202377;23;20028;-75
2023/10/22 03:08:03;;;;;;;21.17;4.47;;;13.80;99.90;;;;;;6190171;23;20464;-73
2023/10/22 03:10:30;;;;;;;16.85;4.28;;;13.70;99.90;;;;;;6225532;23;20504;-74
2023/10/22 03:12:59;;;;;;;12.57;3.83;;;13.70;99.90;;;;;;6226853;23;20067;-75
2023/10/22 03:15:27;;;;;;;14.80;3.83;;;13.70;99.90;;;;;;6217250;23;20024;-77
2023/10/22 03:17:56;;;;;;;12.63;4.10;;;13.60;99.90;;;;;;6212698;23;20063;-74
2023/10/22 03:20:24;;;;;;;17.58;5.10;;;13.40;99.90;;;;;;6187214;23;20032;-74
2023/10/22 03:22:52;;;;;;;16.23;4.57;;;13.30;99.90;;;;;;6187148;23;20020;-77
2023/10/22 03:25:23;;;;;;;13.27;4.47;;;13.20;99.90;;;;;;6226971;23;20017;-75
2023/10/22 03:27:50;;;;;;;14.93;4.78;;;13.20;99.90;;;;;;6186979;23;20465;-77
2023/10/22 03:30:18;;;;;;;16.52;5.45;;;13.20;99.90;;;;;;6206692;23;20039;-74
2023/10/22 03:32:45;;;;;;;14.55;3.90;;;13.20;99.90;;;;;;6213009;23;20009;-75
2023/10/22 03:35:13;;;;;;;18.27;4.70;;;13.30;99.90;;;;;;6229663;23;20028;-75
2023/10/22 03:37:41;;;;;;;18.27;4.10;;;13.20;99.90;;;;;;6222501;23;20541;-74
2023/10/22 03:40:10;;;;;;;17.40;4.05;;;13.20;99.90;;;;;;6224530;23;20023;-75
2023/10/22 03:42:39;;;;;;;15.05;3.17;;;13.20;99.90;;;;;;6216875;23;20032;-76
2023/10/22 03:45:08;;;;;;;10.82;3.63;;;13.10;99.90;;;;;;6218060;23;20381;-76
2023/10/22 03:47:35;;;;;;;10.73;3.65;;;13.10;99.90;;;;;;6219489;23;20079;-76
2023/10/22 03:50:03;;;;;;;10.52;3.15;;;13.10;99.90;;;;;;6186232;23;20024;-75
2023/10/22 03:52:30;;;;;;;13.65;3.13;;;13.20;99.90;;;;;;6186141;23;20057;-76
2023/10/22 03:54:58;;;;;;;9.73;2.90;;;13.10;99.90;;;;;;6224368;23;20016;-76
2023/10/22 03:57:25;;;;;;;10.65;3.40;;;13.20;99.90;;;;;;6214045;23;20048;-76
2023/10/22 03:59:54;;;;;;;15.05;4.60;;;13.10;99.90;;;;;;6216098;23;20032;-79
2023/10/22 04:02:23;;;;;;;16.67;3.80;;;13.00;99.90;;;;;;6219230;23;20029;-76
2023/10/22 04:04:50;;;;;;;14.95;3.67;;;12.90;99.90;;;;;;6221173;23;20016;-77
2023/10/22 04:07:17;;;;;;;16.10;4.50;;;12.90;99.90;;;;;;6223160;23;20016;-75
2023/10/22 04:09:45;;;;;;;12.48;4.22;;;13.00;99.90;;;;;;6213184;23;20043;-73
2023/10/22 04:12:12;;;;;;;11.57;4.13;;;12.90;99.90;;;;;;6221836;23;20384;-74
2023/10/22 04:14:39;;;;;;;15.63;4.35;;;13.00;99.90;;;;;;6225640;23;20078;-75
2023/10/22 04:17:08;;;;;;;15.90;3.90;;;13.00;99.90;;;;;;6226818;23;20024;-73
2023/10/22 04:19:35;;;;;;;14.85;4.38;;;13.00;99.90;;;;;;6226875;23;20067;-76
2023/10/22 04:22:03;;;;;;;14.65;4.07;;;13.00;99.90;;;;;;6231924;23;20017;-77
2023/10/22 04:24:31;;;;;;;15.70;4.20;;;13.00;99.90;;;;;;6219215;23;20035;-73
2023/10/22 04:26:58;;;;;;;18.65;4.90;;;13.00;99.90;;;;;;6218760;23;20028;-77
2023/10/22 04:29:25;;;;;;;18.27;4.97;;;13.10;99.90;;;;;;6218277;23;20044;-77
2023/10/22 04:31:52;;;;;;;16.58;4.75;;;12.90;99.90;;;;;;6221622;23;20024;-75
2023/10/22 04:34:21;;;;;;;17.90;5.70;;;12.70;99.90;;;;;;6224620;23;20024;-76
2023/10/22 04:36:49;;;;;;;11.38;4.53;;;12.60;99.90;;;;;;6213047;23;20024;-77
2023/10/22 04:39:16;;;;;;;17.88;4.60;;;12.50;99.90;;;;;;6214448;23;20024;-75
2023/10/22 04:41:44;;;;;;;13.30;3.90;;;12.60;99.90;;;;;;6217828;23;20040;-76
2023/10/22 04:44:11;;;;;;;15.38;4.43;;;12.60;99.90;;;;;;6186202;23;20425;-74
2023/10/22 04:46:38;;;;;;;14.63;5.25;;;12.60;99.90;;;;;;6222708;23;20024;-74
2023/10/22 04:49:06;;;;;;;15.88;4.63;;;12.60;99.90;;;;;;6222908;23;20009;-76
2023/10/22 04:51:36;;;;;;;11.57;3.90;;;12.60;99.90;;;;;;6213924;23;20033;-74
2023/10/22 04:54:04;;;;;;;19.40;4.78;;;12.70;99.90;;;;;;6215865;23;20024;-77
2023/10/22 04:56:31;;;;;;;27.02;17.98;;;12.80;99.90;;;;;;6217673;23;20453;-76
2023/10/22 04:58:59;;;;;;;31.25;19.27;;;12.70;99.90;;;;;;6220365;23;20043;-75
2023/10/22 05:01:26;;;;;;;25.67;16.27;;;12.70;99.90;;;;;;6224864;23;20012;-76
2023/10/22 05:03:54;;;;;;;25.65;13.10;;;12.70;99.90;;;;;;6215165;23;20020;-75
2023/10/22 05:06:21;;;;;;;18.17;8.90;;;12.60;99.90;;;;;;6229942;23;20028;-74
2023/10/22 05:08:50;;;;;;;18.10;8.00;;;12.70;99.90;;;;;;6240660;23;20021;-77
2023/10/22 05:11:18;;;;;;;15.88;8.13;;;12.70;99.90;;;;;;6222407;23;20184;-77
2023/10/22 05:13:45;;;;;;;20.42;10.10;;;12.70;99.90;;;;;;6224501;23;20020;-76
2023/10/22 05:16:13;;;;;;;17.70;8.10;;;12.60;99.90;;;;;;6226443;23;20397;-76
2023/10/22 05:18:40;;;;;;;68.88;16.38;;;12.60;99.90;;;;;;6216677;23;20024;-77
2023/10/22 05:21:09;;;;;;;19.95;9.70;;;12.60;99.90;;;;;;6220664;23;20081;-75
2023/10/22 05:23:38;;;;;;;21.08;10.13;;;12.70;99.90;;;;;;6224215;23;20043;-76
2023/10/22 05:26:09;;;;;;;14.32;7.95;;;12.80;99.90;;;;;;6224963;23;20024;-75
2023/10/22 05:28:36;;;;;;;17.38;7.63;;;12.90;99.90;;;;;;6231015;23;20021;-78
2023/10/22 05:31:11;;;;;;;15.88;7.38;;;13.00;99.90;;;;;;6245960;23;20035;-76
2023/10/22 05:33:38;;;;;;;15.93;5.90;;;13.00;99.90;;;;;;6227990;22;20020;-74
2023/10/22 05:36:13;;;;;;;20.73;7.75;;;12.90;99.90;;;;;;6219814;23;20021;-76
2023/10/22 05:38:41;;;;;;;21.42;8.40;;;12.90;99.90;;;;;;6219617;23;20021;-75
2023/10/22 05:41:18;;;;;;;19.73;7.25;;;13.00;99.90;;;;;;6221119;23;20043;-74
2023/10/22 05:43:45;;;;;;;19.08;7.03;;;13.00;99.90;;;;;;6222401;23;20023;-77
2023/10/22 05:46:12;;;;;;;18.65;6.82;;;13.10;99.90;;;;;;6224572;23;20334;-74
2023/10/22 05:48:39;;;;;;;22.05;7.43;;;13.20;99.90;;;;;;6213488;23;20020;-77
2023/10/22 05:51:07;;;;;;;16.67;7.70;;;13.30;99.90;;;;;;6220711;23;20032;-77
2023/10/22 05:53:34;;;;;;;16.30;6.18;;;13.30;99.90;;;;;;6229837;23;20039;-78
2023/10/22 05:56:02;;;;;;;17.48;5.40;;;13.40;99.90;;;;;;6224508;23;20024;-75
2023/10/22 05:58:31;;;;;;;12.82;4.75;;;13.50;99.90;;;;;;6223652;23;20017;-76
2023/10/22 06:00:58;;;;;;;16.83;5.60;;;13.50;99.90;;;;;;6224611;23;20444;-77
2023/10/22 06:03:25;;;;;;;16.23;5.45;;;13.60;99.90;;;;;;6188009;23;20484;-75
2023/10/22 06:05:53;;;;;;;14.00;5.05;;;13.60;99.90;;;;;;6218507;23;20036;-76
2023/10/22 06:08:20;;;;;;;16.33;5.68;;;13.70;99.90;;;;;;6219120;23;20028;-76
2023/10/22 06:10:48;;;;;;;15.40;5.40;;;13.70;99.90;;;;;;6220729;23;20020;-77
2023/10/22 06:13:15;;;;;;;14.90;5.47;;;13.80;99.90;;;;;;6222512;23;20046;-76
2023/10/22 06:15:45;;;;;;;17.88;5.80;;;14.00;99.90;;;;;;6213466;23;20047;-77
2023/10/22 06:18:13;;;;;;;18.98;6.28;;;14.20;99.90;;;;;;6215962;23;20067;-75
2023/10/22 06:20:41;;;;;;;16.23;6.18;;;14.30;99.90;;;;;;6219593;23;20063;-75
2023/10/22 06:23:08;;;;;;;17.85;8.63;;;14.40;99.90;;;;;;6220121;23;20024;-74
2023/10/22 06:25:36;;;;;;;16.65;9.32;;;14.70;99.90;;;;;;6185061;23;20646;-73
2023/10/22 06:28:03;;;;;;;22.58;12.07;;;14.90;99.90;;;;;;6185824;23;20383;-75
2023/10/22 06:30:33;;;;;;;25.98;8.85;;;15.20;99.90;;;;;;6214519;23;20020;-74
2023/10/22 06:33:03;;;;;;;15.95;7.70;;;15.40;99.90;;;;;;6195540;22;20044;-78
2023/10/22 06:35:30;;;;;;;17.58;7.32;;;15.70;99.90;;;;;;6316962;22;20099;-82
2023/10/22 06:37:58;;;;;;;17.70;8.32;;;15.90;99.90;;;;;;6335720;22;20035;-80
2023/10/22 06:40:26;;;;;;;17.88;7.88;;;16.00;1.00;;;;;;6278064;22;20011;-78
2023/10/22 06:42:53;;;;;;;20.98;9.38;;;15.90;99.90;;;;;;6302784;22;20026;-78
2023/10/22 06:45:21;;;;;;;16.77;7.78;;;15.80;99.90;;;;;;6305697;22;20034;-83
2023/10/22 06:47:51;;;;;;;19.13;7.72;;;15.70;1.00;;;;;;6295084;22;20049;-86
2023/10/22 06:50:20;;;;;;;24.35;10.15;;;15.80;1.00;;;;;;6275137;22;20081;-83
2023/10/22 06:52:47;;;;;;;24.83;8.93;;;15.90;99.90;;;;;;6278001;22;20458;-79
2023/10/22 06:55:15;;;;;;;20.15;8.35;;;15.70;1.00;;;;;;6306144;22;20030;-80
2023/10/22 06:57:44;;;;;;;21.88;10.05;;;15.70;1.00;;;;;;6313693;22;20023;-79
2023/10/22 07:00:13;;;;;;;22.40;10.98;;;15.50;1.00;;;;;;6290871;22;20030;-80
2023/10/22 07:02:40;;;;;;;31.52;18.08;;;15.40;99.90;;;;;;6323238;22;20038;-79
2023/10/22 07:05:10;;;;;;;35.28;21.65;;;15.40;99.90;;;;;;6281072;22;20284;-78
2023/10/22 07:07:42;;;;;;;43.97;27.10;;;15.30;99.90;;;;;;6313534;22;20486;-83
2023/10/22 07:10:15;;;;;;;23.42;12.82;;;15.40;99.90;;;;;;6316657;22;20045;-83
2023/10/22 07:19:47;;;;;;;60.70;37.05;;;16.20;28.80;;;;;;6080823;23;20025;-81
2023/10/22 07:22:14;;;;;;;36.45;21.38;;;16.10;1.00;;;;;;6077189;23;20039;-80
2023/10/22 07:24:45;;;;;;;31.60;18.33;;;16.10;1.00;;;;;;6119907;23;20029;-79
2023/10/22 07:27:13;;;;;;;32.58;19.02;;;16.20;1.00;;;;;;6121152;23;20399;-78
2023/10/22 07:29:40;;;;;;;36.63;21.42;;;16.40;1.00;;;;;;6122435;23;20022;-80
2023/10/22 07:32:08;;;;;;;37.90;24.92;;;16.50;1.00;;;;;;6127786;23;20518;-78
2023/10/22 07:34:35;;;;;;;43.60;23.45;;;16.60;99.90;;;;;;6130559;23;20036;-81
2023/10/22 07:37:03;;;;;;;33.17;18.65;;;16.70;99.90;;;;;;6129307;23;20044;-80
2023/10/22 07:39:30;;;;;;;35.38;20.67;;;16.90;99.90;;;;;;6120399;23;20022;-83
2023/10/22 07:42:00;;;;;;;28.50;18.55;;;17.10;1.00;;;;;;6122757;23;20018;-80
2023/10/22 07:44:27;;;;;;;24.45;15.88;;;17.20;1.00;;;;;;6125259;23;20097;-81
2023/10/22 07:46:54;;;;;;;32.42;15.27;;;17.50;99.90;;;;;;6127260;23;20135;-80
2023/10/22 07:49:21;;;;;;;27.15;12.88;;;17.70;1.00;;;;;;6127117;23;20029;-78
2023/10/22 07:51:49;;;;;;;27.38;11.95;;;18.00;1.00;;;;;;6093131;23;20036;-79
2023/10/22 07:54:16;;;;;;;21.35;10.07;;;18.20;99.90;;;;;;6151888;23;20057;-81
2023/10/22 07:56:44;;;;;;;22.92;11.57;;;18.30;1.00;;;;;;6298592;22;20098;-80
2023/10/22 07:59:13;;;;;;;30.85;15.13;;;18.40;1.00;;;;;;6276271;22;20347;-80
2023/10/22 08:01:40;;;;;;;24.60;12.95;;;18.50;99.90;;;;;;6278313;22;20069;-80
2023/10/22 08:04:08;;;;;;;25.50;11.52;;;18.60;1.00;;;;;;6316050;22;20034;-81
2023/10/22 08:06:36;;;;;;;23.65;11.52;;;18.70;1.00;;;;;;6304604;22;20084;-79
2023/10/22 08:09:04;;;;;;;28.55;11.95;;;18.90;99.90;;;;;;6307889;22;20053;-79
2023/10/22 08:11:32;;;;;;;22.50;13.00;;;19.10;1.00;;;;;;6277423;22;20019;-83
2023/10/22 08:13:59;;;;;;;26.05;14.80;;;19.20;39.90;;;;;;6279118;22;20023;-81
2023/10/22 08:16:31;;;;;;;33.42;18.13;;;19.20;1.00;;;;;;6281234;22;20019;-82
2023/10/22 08:18:58;;;;;;;23.27;14.52;;;19.20;99.90;;;;;;6287610;22;20065;-80
2023/10/22 08:21:25;;;;;;;30.65;14.63;;;19.20;61.40;;;;;;6288994;22;20027;-81
2023/10/22 08:23:53;;;;;;;24.08;13.65;;;19.20;47.00;;;;;;6288343;22;20087;-80
2023/10/22 08:26:21;;;;;;;20.48;11.40;;;19.20;99.90;;;;;;6279818;22;20023;-80
2023/10/22 08:28:51;;;;;;;21.58;10.82;;;19.30;1.00;;;;;;6278043;22;20039;-80
2023/10/22 08:31:19;;;;;;;25.42;15.23;;;19.50;1.00;;;;;;6278305;22;20019;-77
2023/10/22 08:33:48;;;;;;;20.25;11.13;;;19.70;1.00;;;;;;6305255;22;20019;-80
2023/10/22 08:36:16;;;;;;;25.98;12.50;;;19.70;99.90;;;;;;6279546;22;20038;-78
2023/10/22 08:38:44;;;;;;;21.30;10.18;;;19.90;1.00;;;;;;6310597;22;20078;-79
2023/10/22 08:41:18;;;;;;;23.83;9.23;;;20.10;99.90;;;;;;6315006;22;20447;-79
2023/10/22 08:43:46;;;;;;;19.58;8.57;;;20.20;99.90;;;;;;6314519;22;20046;-79
2023/10/22 08:46:17;;;;;;;17.33;9.77;;;20.30;1.00;;;;;;6276873;22;20011;-79
2023/10/22 08:48:46;;;;;;;18.55;9.25;;;20.50;1.00;;;;;;6305276;22;20015;-79
2023/10/22 08:51:14;;;;;;;11.93;6.15;;;20.70;1.00;;;;;;6277866;22;20086;-81
2023/10/22 08:53:42;;;;;;;15.30;6.70;;;20.80;1.00;;;;;;6276457;22;20325;-81
2023/10/22 08:56:09;;;;;;;17.98;6.78;;;20.80;99.90;;;;;;6276085;22;20061;-78
2023/10/22 08:58:37;;;;;;;13.57;5.63;;;21.00;99.90;;;;;;6312632;22;20015;-80
2023/10/22 09:01:04;;;;;;;16.55;7.15;;;21.20;99.90;;;;;;6277416;22;20037;-81
2023/10/22 09:03:32;;;;;;;15.70;6.97;;;21.40;99.90;;;;;;6307580;22;20020;-82
2023/10/22 09:06:01;;;;;;;17.77;6.13;;;21.80;99.90;;;;;;6314523;22;20059;-81
2023/10/22 09:08:43;;;;;;;19.27;7.28;;;22.10;99.90;;;;;;6313445;22;20051;-81
2023/10/22 09:11:15;;;;;;;17.10;4.88;;;22.60;99.90;;;;;;6303597;22;20034;-80
2023/10/22 09:13:42;;;;;;;11.30;4.82;;;22.90;99.90;;;;;;6279202;22;20348;-81
2023/10/22 09:16:10;;;;;;;13.55;4.68;;;23.10;99.90;;;;;;6323628;22;20049;-82
2023/10/22 09:18:43;;;;;;;13.32;3.80;;;23.40;99.90;;;;;;6280476;22;20054;-81
2023/10/22 09:21:11;;;;;;;10.80;4.25;;;23.60;34.80;;;;;;6305978;22;20026;-82
2023/10/22 09:23:38;;;;;;;15.13;5.97;;;23.60;99.90;;;;;;6278025;22;20098;-78
2023/10/22 09:26:09;;;;;;;9.55;4.40;;;23.70;1.00;;;;;;6277988;22;20202;-79
2023/10/22 09:28:36;;;;;;;16.38;7.22;;;24.00;99.90;;;;;;6288801;22;20019;-82
2023/10/22 09:31:05;;;;;;;15.27;6.20;;;24.20;99.90;;;;;;6285001;22;20019;-82
2023/10/22 09:33:33;;;;;;;11.15;4.00;;;24.30;99.90;;;;;;6275991;22;20347;-83
2023/10/22 09:36:03;;;;;;;13.98;4.47;;;24.40;99.90;;;;;;6283080;22;20030;-82
2023/10/22 09:38:44;;;;;;;19.33;7.60;;;24.50;1.00;;;;;;6313237;22;20023;-81
2023/10/22 09:41:14;;;;;;;15.63;5.57;;;24.30;1.00;;;;;;6310685;22;20035;-82
2023/10/22 09:43:41;;;;;;;12.40;3.47;;;24.60;1.00;;;;;;6300842;22;20026;-81
2023/10/22 09:46:09;;;;;;;13.40;3.90;;;24.60;1.00;;;;;;6315199;22;20050;-81
2023/10/22 09:48:36;;;;;;;16.00;7.68;;;24.50;1.00;;;;;;6305280;22;20019;-78
2023/10/22 09:51:07;;;;;;;14.60;5.88;;;24.60;1.00;;;;;;6307106;22;20019;-80
2023/10/22 09:53:40;;;;;;;15.13;5.45;;;24.70;1.00;;;;;;6302210;22;20035;-83
2023/10/22 09:56:16;;;;;;;29.90;17.60;;;24.70;99.90;;;;;;6312979;22;20019;-82
2023/10/22 09:58:44;;;;;;;21.27;11.57;;;24.80;99.90;;;;;;6314486;22;20023;-83
2023/10/22 10:01:24;;;;;;;12.85;5.03;;;25.00;99.90;;;;;;6315170;22;20019;-79
2023/10/22 10:03:54;;;;;;;11.00;4.43;;;25.00;99.90;;;;;;6276038;22;20114;-81
2023/10/22 10:06:22;;;;;;;16.80;4.57;;;24.90;99.90;;;;;;6303361;22;20019;-82
2023/10/22 10:08:50;;;;;;;14.50;5.05;;;24.70;1.00;;;;;;6304307;22;20033;-81
2023/10/22 10:11:22;;;;;;;16.13;6.72;;;24.70;17.90;;;;;;6303963;22;20080;-82
2023/10/22 10:13:49;;;;;;;19.42;5.28;;;24.30;40.70;;;;;;6279659;22;20031;-82
2023/10/22 10:16:17;;;;;;;22.33;6.50;;;24.00;1.00;;;;;;6315966;22;20530;-79
2023/10/22 10:18:59;;;;;;;18.02;6.00;;;23.70;74.00;;;;;;6303928;22;20019;-79
2023/10/22 10:21:47;;;;;;;21.48;8.55;;;23.40;1.00;;;;;;6304873;22;20102;-81
2023/10/22 10:24:19;;;;;;;19.17;7.70;;;22.90;44.50;;;;;;6303569;22;20542;-80
2023/10/22 10:26:50;;;;;;;16.42;5.10;;;22.20;1.00;;;;;;6307248;22;20054;-81
2023/10/22 10:29:19;;;;;;;18.90;5.93;;;21.60;79.90;;;;;;6312678;22;20019;-81
2023/10/22 10:31:48;;;;;;;18.73;5.65;;;21.30;1.00;;;;;;6323832;22;20011;-81
2023/10/22 10:34:35;;;;;;;18.02;7.13;;;21.10;99.90;;;;;;6327017;22;20064;-83
2023/10/22 10:37:11;;;;;;;;;;;20.90;1.00;;;;;;6278541;22;20047;-80
2023/10/22 10:39:40;;;;;;;;;;;20.90;99.90;;;;;;6306454;22;19914;-83
2023/10/22 10:42:11;;;;;;;20.30;4.82;;;20.90;1.00;;;;;;6282281;22;19918;-82
2023/10/22 10:45:06;;;;;;;18.02;5.80;;;21.10;1.00;;;;;;6312501;22;20023;-84
2023/10/22 10:47:35;;;;;;;16.02;6.25;;;21.10;1.00;;;;;;6303190;22;20035;-84
2023/10/22 10:50:06;;;;;;;11.70;4.70;;;21.20;99.90;;;;;;6302718;22;20003;-83
2023/10/22 10:52:59;;;;;;;13.45;5.70;;;21.30;99.90;;;;;;6303008;22;20626;-80
2023/10/22 10:55:33;;;;;;;16.70;6.80;;;21.50;38.80;;;;;;6300747;22;20023;-84
2023/10/22 10:58:03;;;;;;;14.55;6.03;;;21.60;99.90;;;;;;6324427;22;20101;-81
2023/10/22 11:00:31;;;;;;;18.33;5.15;;;21.60;1.00;;;;;;6318515;22;20019;-84
2023/10/22 11:03:01;;;;;;;16.65;6.28;;;21.60;1.00;;;;;;6303442;22;20034;-81
2023/10/22 11:05:39;;;;;;;17.30;6.95;;;21.60;1.00;;;;;;6309424;22;20182;-78
2023/10/22 11:08:07;;;;;;;14.27;6.07;;;21.50;1.00;;;;;;6288766;22;20038;-78
2023/10/22 11:10:37;;;;;;;19.90;8.38;;;21.40;1.00;;;;;;6275507;22;20075;-84
2023/10/22 11:13:08;;;;;;;14.02;5.75;;;21.40;1.00;;;;;;6283239;22;20026;-82
2023/10/22 11:16:28;;;;;;;16.45;6.25;;;21.40;1.00;;;;;;6284017;22;20023;-80
2023/10/22 11:19:20;;;;;;;22.63;11.02;;;21.40;1.00;;;;;;6244014;22;20025;-83
2023/10/22 11:21:50;;;;;;;16.65;8.20;;;21.50;1.00;;;;;;6285971;22;20110;-83
2023/10/22 11:24:20;;;;;;;22.20;13.02;;;21.40;1.00;;;;;;6287890;22;20024;-85
2023/10/22 11:26:49;;;;;;;123.03;80.88;;;21.30;1.00;;;;;;6290404;22;20030;-86
2023/10/22 11:29:23;;;;;;;18.35;9.25;;;21.30;1.00;;;;;;6285816;22;20023;-84
2023/10/22 11:32:03;;;;;;;21.10;10.98;;;21.20;1.00;;;;;;6286655;22;20016;-86
2023/10/22 11:34:30;;;;;;;16.25;7.72;;;21.20;1.00;;;;;;6281087;22;20021;-79
2023/10/22 11:36:59;;;;;;;18.65;8.45;;;21.20;99.90;;;;;;6318503;22;20022;-81
2023/10/22 11:39:34;;;;;;;20.15;9.75;;;21.00;1.00;;;;;;6305502;22;20023;-82
2023/10/22 11:42:03;;;;;;;23.75;12.68;;;20.80;99.90;;;;;;6306502;22;20034;-80
2023/10/22 11:44:33;;;;;;;32.78;15.23;;;20.50;1.00;;;;;;6279327;22;20102;-80
2023/10/22 11:47:02;;;;;;;22.48;10.57;;;20.00;1.00;;;;;;6279759;22;20042;-79
2023/10/22 11:49:29;;;;;;;24.02;10.88;;;19.40;1.00;;;;;;6302952;22;20026;-79
2023/10/22 11:51:57;;;;;;;18.33;8.93;;;19.20;99.90;;;;;;6304085;22;20011;-78
2023/10/22 11:54:55;;;;;;;19.20;8.55;;;19.10;99.90;;;;;;6327292;22;20490;-78
2023/10/22 11:58:05;;;;;;;23.90;11.48;;;19.30;99.90;;;;;;6183778;23;20029;-81
2023/10/22 12:00:53;;;;;;;;;;;;;;;;;;;;;
2023/10/22 12:03:25;;;;;;;21.38;10.60;;;19.50;99.90;;;;;;6152834;23;20024;-79
2023/10/22 12:05:52;;;;;;;30.13;12.82;;;19.60;99.90;;;;;;6160002;23;20031;-78
2023/10/22 12:08:22;;;;;;;31.05;13.90;;;19.60;99.90;;;;;;6159306;23;20037;-78
2023/10/22 12:10:50;;;;;;;21.63;10.93;;;19.60;99.90;;;;;;6157694;23;20036;-79
2023/10/22 12:13:17;;;;;;;20.30;9.10;;;19.60;99.90;;;;;;6159677;23;20100;-79
2023/10/22 12:15:46;;;;;;;25.42;11.75;;;19.70;99.90;;;;;;6182184;23;20021;-79
2023/10/22 12:18:14;;;;;;;39.90;24.98;;;19.90;99.90;;;;;;6182947;23;20458;-78
2023/10/22 12:20:41;;;;;;;42.75;25.88;;;20.00;99.90;;;;;;6154371;23;20064;-76
2023/10/22 12:23:11;;;;;;;30.17;15.30;;;20.30;99.90;;;;;;6156412;23;20017;-77
2023/10/22 12:25:38;;;;;;;34.90;20.25;;;20.50;7.30;;;;;;6154585;23;20021;-79
2023/10/22 12:28:06;;;;;;;31.45;16.60;;;20.50;1.00;;;;;;6184392;23;20091;-77
2023/10/22 12:30:34;;;;;;;20.27;9.38;;;20.60;68.10;;;;;;6216596;22;20060;-80
2023/10/22 12:33:03;;;;;;;22.67;8.57;;;20.50;1.00;;;;;;6278667;22;20434;-80
2023/10/22 12:35:31;;;;;;;17.10;9.63;;;20.40;1.00;;;;;;6278479;22;20321;-79
2023/10/22 12:37:58;;;;;;;22.58;10.38;;;20.40;99.90;;;;;;6311530;22;20061;-80
2023/10/22 12:40:27;;;;;;;14.88;8.00;;;20.50;52.50;;;;;;6290795;22;20011;-78
2023/10/22 12:42:56;;;;;;;16.05;7.63;;;20.70;55.60;;;;;;6322055;22;20034;-78
2023/10/22 12:45:24;;;;;;;14.85;7.28;;;20.70;1.00;;;;;;6319158;22;20023;-79
2023/10/22 12:47:51;;;;;;;14.32;6.38;;;20.60;1.00;;;;;;6322515;22;20440;-80
2023/10/22 12:50:20;;;;;;;16.27;7.63;;;20.60;1.00;;;;;;6311598;22;20073;-80
2023/10/22 12:52:48;;;;;;;20.15;6.70;;;20.70;99.90;;;;;;6277005;22;20019;-78
2023/10/22 12:55:15;;;;;;;14.82;8.27;;;20.80;1.00;;;;;;6314598;22;20019;-79
2023/10/22 12:57:43;;;;;;;18.65;9.80;;;20.90;99.90;;;;;;6277057;22;20019;-80
2023/10/22 13:00:12;;;;;;;20.23;10.88;;;21.10;1.00;;;;;;6301351;22;20398;-80